Airfield :
LOGIN :

Register | Disclaimer

   EN    FR    IT 

 










Legend :    VFR   Marginal VFR   IFR   Intensive IFR   Very Intensive IFR
Visi :
Ceiling :
>= 8 km
>= 3000ft
5 to 8 km
1000 to 3000 ft
1500m to 5 km
500 to 1000 ft
800 to 1500m
200 to 500 ft
< 800m
< 200 ft
Symbols :   Thunderstorms  Fog  Heavy snow  Heavy precipitations  Wind > 20 kt
SIGMETs :     Misc.  Thunderstorms  Icing  Turbulence  Mountain Waves  Volcanic Ashes






- Airport Elevation : 28 ft
- IATA code : SOZ


LFKS - Solenzara

CURRENT METAR :
  • 170230Z AUTO 34004KT 250V020 9999 OVC060 16/12 Q1008

EXPIRED METARs :
  • 170200Z AUTO VRB02KT 9999 OVC064 16/13 Q1008
  • 170130Z AUTO 33003KT 250V040 9999 OVC068 16/13 Q1008
  • 170100Z AUTO VRB05KT 9999 OVC070 16/13 Q1008
  • 170030Z AUTO VRB02KT 9999 OVC070 16/13 Q1008
  • 170000Z AUTO 35005KT 290V070 9999 BKN074 15/14 Q1008

TAF TAF LFKS
Valid from the 16 at 15:00 until the 17 at 15:00 UTC


161400Z 1615/1715 VRB03KT 9999 NSC
TEMPO 1706/1709 10010KT



MET'MAP, your aeronautical weather chart ! - Copyright ORBIFLY December 2007 - Disclaimer

ORBIFLY MET'MAP TEAM :

Programming & Development : Alexandra Zaïnal
Concept & original design : Baudouin d'Aumeries
Assistance for programming : Marc-Olivier Méhu
Technical & hardware support : Manuel Goepfert

Contact : metmap@orbifly.com




SOURCES & CREDITS :

   NOAA